Terminal Aerodrome Forecast
Issued by NWS Tampa Bay Area, FL

Home | Current Version | Previous Version | Text Only | Print | Product List | Glossary Off
Versions: 1 2 3 4 5 6 7 8 9 10 11 12 13 14

000
FTUS42 KTBW 220500
TAFFMY
TAF
KFMY 220534Z 2206/2306 VRB03KT P6SM SCT130 BKN250
     FM221400 VRB04KT P6SM SCT025 BKN250
     FM221700 25006KT P6SM VCTS SCT035CB SCT100 BKN250
     FM230200 VRB03KT P6SM SCT030 BKN150=

USA.gov is the U.S. government's official web portal to all federal, state and local government web resources and services.